sensor_id;sensor_type;location;lat;lon;timestamp;pressure;altitude;pressure_sealevel;temperature;humidity
21290;BME280;10804;48.988;2.408;2023-02-13T00:01:40;102724.75;;;8.34;68.04
21290;BME280;10804;48.988;2.408;2023-02-13T00:04:07;102735.13;;;8.34;67.78
21290;BME280;10804;48.988;2.408;2023-02-13T00:06:34;102722.03;;;8.28;68.54
21290;BME280;10804;48.988;2.408;2023-02-13T00:09:02;102728.13;;;8.30;68.56
21290;BME280;10804;48.988;2.408;2023-02-13T00:11:29;102729.03;;;8.30;68.13
21290;BME280;10804;48.988;2.408;2023-02-13T00:13:57;102728.19;;;8.33;68.34
21290;BME280;10804;48.988;2.408;2023-02-13T00:16:26;102735.94;;;8.28;68.01
21290;BME280;10804;48.988;2.408;2023-02-13T00:18:53;102737.59;;;8.26;68.12
21290;BME280;10804;48.988;2.408;2023-02-13T00:21:20;102740.22;;;8.25;68.49
21290;BME280;10804;48.988;2.408;2023-02-13T00:23:47;102739.34;;;8.26;67.90
21290;BME280;10804;48.988;2.408;2023-02-13T00:26:15;102739.34;;;8.27;67.94
21290;BME280;10804;48.988;2.408;2023-02-13T00:28:44;102738.44;;;8.24;68.02
21290;BME280;10804;48.988;2.408;2023-02-13T00:31:13;102733.19;;;8.21;68.00
21290;BME280;10804;48.988;2.408;2023-02-13T00:33:42;102734.91;;;8.19;68.12
21290;BME280;10804;48.988;2.408;2023-02-13T00:36:12;102736.66;;;8.20;68.49
21290;BME280;10804;48.988;2.408;2023-02-13T00:38:40;102738.31;;;8.18;68.34
21290;BME280;10804;48.988;2.408;2023-02-13T00:41:08;102733.06;;;8.15;68.46
21290;BME280;10804;48.988;2.408;2023-02-13T00:43:36;102738.25;;;8.15;68.61
21290;BME280;10804;48.988;2.408;2023-02-13T00:46:04;102726.94;;;8.10;68.41
21290;BME280;10804;48.988;2.408;2023-02-13T00:48:33;102733.06;;;8.15;67.65
21290;BME280;10804;48.988;2.408;2023-02-13T00:51:02;102720.88;;;8.11;68.37
21290;BME280;10804;48.988;2.408;2023-02-13T00:53:29;102726.06;;;8.11;68.41
21290;BME280;10804;48.988;2.408;2023-02-13T00:55:57;102736.47;;;8.11;68.45
21290;BME280;10804;48.988;2.408;2023-02-13T00:58:24;102719.06;;;8.07;68.19
21290;BME280;10804;48.988;2.408;2023-02-13T01:00:53;102719.06;;;8.07;68.11
21290;BME280;10804;48.988;2.408;2023-02-13T01:03:21;102719.88;;;8.03;68.16
21290;BME280;10804;48.988;2.408;2023-02-13T01:05:48;102716.47;;;8.07;68.51
21290;BME280;10804;48.988;2.408;2023-02-13T01:08:18;102719.06;;;8.05;68.20
21290;BME280;10804;48.988;2.408;2023-02-13T01:10:47;102717.28;;;8.03;68.01
21290;BME280;10804;48.988;2.408;2023-02-13T01:13:16;102726.78;;;8.02;68.34
21290;BME280;10804;48.988;2.408;2023-02-13T01:15:45;102724.13;;;7.98;67.90
21290;BME280;10804;48.988;2.408;2023-02-13T01:18:14;102718.91;;;7.98;68.52
21290;BME280;10804;48.988;2.408;2023-02-13T01:20:42;102721.47;;;7.95;68.25
21290;BME280;10804;48.988;2.408;2023-02-13T01:23:10;102710.25;;;7.97;68.41
21290;BME280;10804;48.988;2.408;2023-02-13T01:25:40;102717.19;;;7.97;68.18
21290;BME280;10804;48.988;2.408;2023-02-13T01:28:07;102721.47;;;7.95;67.97
21290;BME280;10804;48.988;2.408;2023-02-13T01:30:35;102721.44;;;7.93;68.38
21290;BME280;10804;48.988;2.408;2023-02-13T01:33:02;102710.97;;;7.89;68.64
21290;BME280;10804;48.988;2.408;2023-02-13T01:35:30;102722.16;;;7.85;68.35
21290;BME280;10804;48.988;2.408;2023-02-13T01:37:57;102717.88;;;7.88;68.28
21290;BME280;10804;48.988;2.408;2023-02-13T01:40:24;102717.00;;;7.86;68.05
21290;BME280;10804;48.988;2.408;2023-02-13T01:42:56;102710.91;;;7.86;67.89
21290;BME280;10804;48.988;2.408;2023-02-13T01:45:25;102718.69;;;7.86;68.04
21290;BME280;10804;48.988;2.408;2023-02-13T01:47:56;102712.66;;;7.85;68.26
21290;BME280;10804;48.988;2.408;2023-02-13T01:50:32;102718.66;;;7.83;68.31
21290;BME280;10804;48.988;2.408;2023-02-13T01:53:04;102725.59;;;7.82;68.18
21290;BME280;10804;48.988;2.408;2023-02-13T01:55:34;102729.94;;;7.83;68.33
21290;BME280;10804;48.988;2.408;2023-02-13T01:58:08;102722.09;;;7.82;67.88
21290;BME280;10804;48.988;2.408;2023-02-13T02:00:38;102722.06;;;7.79;68.09
21290;BME280;10804;48.988;2.408;2023-02-13T02:03:10;102716.81;;;7.76;68.52
21290;BME280;10804;48.988;2.408;2023-02-13T02:05:41;102722.03;;;7.77;68.71
21290;BME280;10804;48.988;2.408;2023-02-13T02:08:12;102723.66;;;7.71;68.08
21290;BME280;10804;48.988;2.408;2023-02-13T02:10:40;102716.75;;;7.73;68.15
21290;BME280;10804;48.988;2.408;2023-02-13T02:13:12;102722.84;;;7.75;68.01
21290;BME280;10804;48.988;2.408;2023-02-13T02:15:41;102724.56;;;7.73;68.48
21290;BME280;10804;48.988;2.408;2023-02-13T02:18:13;102720.13;;;7.69;68.32
21290;BME280;10804;48.988;2.408;2023-02-13T02:21:12;102727.03;;;7.67;68.33
21290;BME280;10804;48.988;2.408;2023-02-13T02:24:12;102727.91;;;7.67;68.52
21290;BME280;10804;48.988;2.408;2023-02-13T02:33:12;102721.78;;;7.64;68.24
21290;BME280;10804;48.988;2.408;2023-02-13T02:35:47;102719.13;;;7.61;68.43
21290;BME280;10804;48.988;2.408;2023-02-13T02:38:36;102721.69;;;7.58;68.33
21290;BME280;10804;48.988;2.408;2023-02-13T02:41:10;102716.41;;;7.55;68.22
21290;BME280;10804;48.988;2.408;2023-02-13T02:44:07;102711.28;;;7.58;68.50
21290;BME280;10804;48.988;2.408;2023-02-13T02:46:51;102711.22;;;7.55;68.01
21290;BME280;10804;48.988;2.408;2023-02-13T02:49:38;102709.56;;;7.57;68.09
21290;BME280;10804;48.988;2.408;2023-02-13T02:52:34;102708.63;;;7.53;68.36
21290;BME280;10804;48.988;2.408;2023-02-13T02:55:12;102699.94;;;7.53;68.11
21290;BME280;10804;48.988;2.408;2023-02-13T02:57:56;102705.97;;;7.52;68.09
21290;BME280;10804;48.988;2.408;2023-02-13T03:00:44;102709.38;;;7.48;68.29
21290;BME280;10804;48.988;2.408;2023-02-13T03:03:31;102702.41;;;7.47;68.35
21290;BME280;10804;48.988;2.408;2023-02-13T03:06:22;102698.00;;;7.42;68.71
21290;BME280;10804;48.988;2.408;2023-02-13T03:08:53;102696.28;;;7.43;68.24
21290;BME280;10804;48.988;2.408;2023-02-13T03:11:41;102694.53;;;7.41;68.20
21290;BME280;10804;48.988;2.408;2023-02-13T03:14:28;102703.19;;;7.42;68.30
21290;BME280;10804;48.988;2.408;2023-02-13T03:16:56;102699.75;;;7.43;68.27
21290;BME280;10804;48.988;2.408;2023-02-13T03:19:53;102708.34;;;7.40;68.77
21290;BME280;10804;48.988;2.408;2023-02-13T03:22:48;102699.53;;;7.32;68.44
21290;BME280;10804;48.988;2.408;2023-02-13T03:25:22;102701.28;;;7.32;68.20
21290;BME280;10804;48.988;2.408;2023-02-13T03:28:11;102707.41;;;7.35;68.52
21290;BME280;10804;48.988;2.408;2023-02-13T03:31:11;102709.09;;;7.33;68.40
21290;BME280;10804;48.988;2.408;2023-02-13T03:33:53;102701.28;;;7.32;68.53
21290;BME280;10804;48.988;2.408;2023-02-13T03:36:30;102708.25;;;7.34;68.34
21290;BME280;10804;48.988;2.408;2023-02-13T03:39:20;102709.88;;;7.29;68.87
21290;BME280;10804;48.988;2.408;2023-02-13T03:41:51;102712.47;;;7.29;67.97
21290;BME280;10804;48.988;2.408;2023-02-13T03:44:27;102711.56;;;7.29;68.46
21290;BME280;10804;48.988;2.408;2023-02-13T03:46:59;102711.56;;;7.29;68.24
21290;BME280;10804;48.988;2.408;2023-02-13T03:49:33;102709.81;;;7.26;68.51
21290;BME280;10804;48.988;2.408;2023-02-13T03:52:24;102708.97;;;7.27;68.39
21290;BME280;10804;48.988;2.408;2023-02-13T03:54:56;102707.22;;;7.26;68.29
21290;BME280;10804;48.988;2.408;2023-02-13T03:57:47;102708.00;;;7.22;68.62
21290;BME280;10804;48.988;2.408;2023-02-13T04:00:37;102706.25;;;7.21;68.32
21290;BME280;10804;48.988;2.408;2023-02-13T04:03:10;102703.66;;;7.21;68.57
21290;BME280;10804;48.988;2.408;2023-02-13T04:05:42;102705.34;;;7.19;68.47
21290;BME280;10804;48.988;2.408;2023-02-13T04:08:10;102710.56;;;7.19;68.16
21290;BME280;10804;48.988;2.408;2023-02-13T04:10:46;102706.16;;;7.17;68.19
21290;BME280;10804;48.988;2.408;2023-02-13T04:13:19;102711.31;;;7.15;68.30
21290;BME280;10804;48.988;2.408;2023-02-13T04:15:51;102708.72;;;7.15;68.21
21290;BME280;10804;48.988;2.408;2023-02-13T04:18:21;102717.31;;;7.13;68.43
21290;BME280;10804;48.988;2.408;2023-02-13T04:20:50;102712.97;;;7.10;68.24
21290;BME280;10804;48.988;2.408;2023-02-13T04:23:18;102716.47;;;7.12;68.33
21290;BME280;10804;48.988;2.408;2023-02-13T04:25:53;102708.59;;;7.09;68.58
21290;BME280;10804;48.988;2.408;2023-02-13T04:28:21;102721.56;;;7.09;68.20
21290;BME280;10804;48.988;2.408;2023-02-13T04:30:49;102710.28;;;7.07;68.47
21290;BME280;10804;48.988;2.408;2023-02-13T04:33:16;102713.72;;;7.06;68.68
21290;BME280;10804;48.988;2.408;2023-02-13T04:35:43;102721.47;;;7.05;68.40
21290;BME280;10804;48.988;2.408;2023-02-13T04:38:11;102711.94;;;7.04;68.25
21290;BME280;10804;48.988;2.408;2023-02-13T04:40:38;102713.69;;;7.03;68.13
21290;BME280;10804;48.988;2.408;2023-02-13T04:43:07;102712.84;;;7.04;68.27
21290;BME280;10804;48.988;2.408;2023-02-13T04:45:34;102720.56;;;7.03;68.42
21290;BME280;10804;48.988;2.408;2023-02-13T04:48:01;102718.78;;;7.00;68.12
21290;BME280;10804;48.988;2.408;2023-02-13T04:50:28;102725.69;;;6.98;68.18
21290;BME280;10804;48.988;2.408;2023-02-13T04:52:56;102717.84;;;6.97;68.42
21290;BME280;10804;48.988;2.408;2023-02-13T04:55:25;102716.09;;;6.96;68.26
21290;BME280;10804;48.988;2.408;2023-02-13T04:57:54;102715.25;;;6.95;68.49
21290;BME280;10804;48.988;2.408;2023-02-13T05:00:25;102711.72;;;6.93;68.62
21290;BME280;10804;48.988;2.408;2023-02-13T05:02:52;102711.72;;;6.93;68.12
21290;BME280;10804;48.988;2.408;2023-02-13T05:05:20;102711.72;;;6.93;68.54
21290;BME280;10804;48.988;2.408;2023-02-13T05:07:47;102714.31;;;6.92;68.15
21290;BME280;10804;48.988;2.408;2023-02-13T05:10:15;102713.41;;;6.91;68.47
21290;BME280;10804;48.988;2.408;2023-02-13T05:12:42;102712.53;;;6.89;68.30
21290;BME280;10804;48.988;2.408;2023-02-13T05:15:09;102718.59;;;6.91;68.41
21290;BME280;10804;48.988;2.408;2023-02-13T05:17:38;102713.38;;;6.88;68.37
21290;BME280;10804;48.988;2.408;2023-02-13T05:20:06;102708.13;;;6.87;68.59
21290;BME280;10804;48.988;2.408;2023-02-13T05:22:33;102710.69;;;6.85;68.20
21290;BME280;10804;48.988;2.408;2023-02-13T05:25:19;102713.22;;;6.82;68.15
21290;BME280;10804;48.988;2.408;2023-02-13T05:27:46;102708.09;;;6.84;68.51
21290;BME280;10804;48.988;2.408;2023-02-13T05:30:14;102701.97;;;6.82;68.20
21290;BME280;10804;48.988;2.408;2023-02-13T05:32:42;102706.31;;;6.83;68.43
21290;BME280;10804;48.988;2.408;2023-02-13T05:35:10;102705.38;;;6.79;68.54
21290;BME280;10804;48.988;2.408;2023-02-13T05:37:37;102706.22;;;6.78;68.56
21290;BME280;10804;48.988;2.408;2023-02-13T05:40:06;102706.25;;;6.80;68.39
21290;BME280;10804;48.988;2.408;2023-02-13T05:42:33;102696.69;;;6.77;68.52
21290;BME280;10804;48.988;2.408;2023-02-13T05:45:00;102703.66;;;6.80;68.35
21290;BME280;10804;48.988;2.408;2023-02-13T05:47:28;102687.22;;;6.78;68.47
21290;BME280;10804;48.988;2.408;2023-02-13T05:49:56;102699.28;;;6.77;68.35
21290;BME280;10804;48.988;2.408;2023-02-13T05:52:24;102689.72;;;6.75;68.17
21290;BME280;10804;48.988;2.408;2023-02-13T05:54:51;102691.41;;;6.73;68.36
21290;BME280;10804;48.988;2.408;2023-02-13T05:57:18;102693.97;;;6.71;68.02
21290;BME280;10804;48.988;2.408;2023-02-13T05:59:46;102693.16;;;6.72;68.22
21290;BME280;10804;48.988;2.408;2023-02-13T06:02:13;102695.66;;;6.69;68.29
21290;BME280;10804;48.988;2.408;2023-02-13T06:04:40;102689.56;;;6.67;68.27
21290;BME280;10804;48.988;2.408;2023-02-13T06:07:09;102692.22;;;6.70;68.04
21290;BME280;10804;48.988;2.408;2023-02-13T06:09:36;102692.16;;;6.67;68.46
21290;BME280;10804;48.988;2.408;2023-02-13T06:12:04;102697.34;;;6.67;68.07
21290;BME280;10804;48.988;2.408;2023-02-13T06:14:31;102690.38;;;6.65;68.17
21290;BME280;10804;48.988;2.408;2023-02-13T06:17:00;102704.22;;;6.65;68.33
21290;BME280;10804;48.988;2.408;2023-02-13T06:19:27;102703.38;;;6.66;68.21
21290;BME280;10804;48.988;2.408;2023-02-13T06:21:54;102706.78;;;6.64;68.39
21290;BME280;10804;48.988;2.408;2023-02-13T06:24:23;102718.00;;;6.63;68.35
21290;BME280;10804;48.988;2.408;2023-02-13T06:26:50;102717.09;;;6.61;68.49
21290;BME280;10804;48.988;2.408;2023-02-13T06:29:18;102724.88;;;6.61;68.12
21290;BME280;10804;48.988;2.408;2023-02-13T06:31:45;102727.38;;;6.58;68.54
21290;BME280;10804;48.988;2.408;2023-02-13T06:34:12;102735.25;;;6.62;68.10
21290;BME280;10804;48.988;2.408;2023-02-13T06:36:40;102740.34;;;6.58;68.26
21290;BME280;10804;48.988;2.408;2023-02-13T06:39:08;102742.97;;;6.59;68.33
21290;BME280;10804;48.988;2.408;2023-02-13T06:41:37;102732.50;;;6.56;68.10
21290;BME280;10804;48.988;2.408;2023-02-13T06:44:05;102723.81;;;6.53;68.32
21290;BME280;10804;48.988;2.408;2023-02-13T06:46:33;102733.34;;;6.55;68.30
21290;BME280;10804;48.988;2.408;2023-02-13T06:49:00;102734.19;;;6.54;67.94
21290;BME280;10804;48.988;2.408;2023-02-13T06:51:27;102736.78;;;6.54;68.13
21290;BME280;10804;48.988;2.408;2023-02-13T06:53:54;102735.94;;;6.55;68.05
21290;BME280;10804;48.988;2.408;2023-02-13T06:56:22;102742.88;;;6.55;68.23
21290;BME280;10804;48.988;2.408;2023-02-13T06:58:52;102742.78;;;6.52;68.02
21290;BME280;10804;48.988;2.408;2023-02-13T07:01:20;102744.41;;;6.47;68.52
21290;BME280;10804;48.988;2.408;2023-02-13T07:03:47;102747.84;;;6.47;68.09
21290;BME280;10804;48.988;2.408;2023-02-13T07:06:17;102748.78;;;6.49;68.08
21290;BME280;10804;48.988;2.408;2023-02-13T07:08:45;102749.59;;;6.47;68.13
21290;BME280;10804;48.988;2.408;2023-02-13T07:11:17;102747.84;;;6.46;68.37
21290;BME280;10804;48.988;2.408;2023-02-13T07:13:44;102748.66;;;6.43;68.79
21290;BME280;10804;48.988;2.408;2023-02-13T07:16:13;102752.19;;;6.47;68.18
21290;BME280;10804;48.988;2.408;2023-02-13T07:18:41;102743.47;;;6.43;68.12
21290;BME280;10804;48.988;2.408;2023-02-13T07:21:08;102746.06;;;6.45;68.12
21290;BME280;10804;48.988;2.408;2023-02-13T07:23:35;102748.59;;;6.42;68.25
21290;BME280;10804;48.988;2.408;2023-02-13T07:26:03;102752.09;;;6.42;68.36
21290;BME280;10804;48.988;2.408;2023-02-13T07:28:30;102757.28;;;6.44;68.34
21290;BME280;10804;48.988;2.408;2023-02-13T07:31:02;102755.53;;;6.41;68.35
21290;BME280;10804;48.988;2.408;2023-02-13T07:33:31;102763.19;;;6.38;68.11
21290;BME280;10804;48.988;2.408;2023-02-13T07:35:58;102754.56;;;6.38;68.30
21290;BME280;10804;48.988;2.408;2023-02-13T07:38:29;102752.78;;;6.37;68.07
21290;BME280;10804;48.988;2.408;2023-02-13T07:40:57;102763.25;;;6.40;68.39
21290;BME280;10804;48.988;2.408;2023-02-13T07:43:25;102760.66;;;6.40;68.32
21290;BME280;10804;48.988;2.408;2023-02-13T07:45:52;102758.91;;;6.40;68.10
21290;BME280;10804;48.988;2.408;2023-02-13T07:48:21;102765.78;;;6.38;68.18
21290;BME280;10804;48.988;2.408;2023-02-13T07:50:49;102771.03;;;6.40;68.11
21290;BME280;10804;48.988;2.408;2023-02-13T07:53:17;102770.97;;;6.38;68.19
21290;BME280;10804;48.988;2.408;2023-02-13T07:55:44;102773.63;;;6.40;68.30
21290;BME280;10804;48.988;2.408;2023-02-13T07:58:11;102774.50;;;6.42;68.14
21290;BME280;10804;48.988;2.408;2023-02-13T08:00:38;102770.13;;;6.39;68.20
21290;BME280;10804;48.988;2.408;2023-02-13T08:03:06;102763.28;;;6.41;68.04
21290;BME280;10804;48.988;2.408;2023-02-13T08:05:33;102771.13;;;6.44;68.28
21290;BME280;10804;48.988;2.408;2023-02-13T08:08:02;102768.50;;;6.43;67.81
21290;BME280;10804;48.988;2.408;2023-02-13T08:10:29;102771.06;;;6.41;68.26
21290;BME280;10804;48.988;2.408;2023-02-13T08:13:14;102766.78;;;6.43;68.00
21290;BME280;10804;48.988;2.408;2023-02-13T08:15:42;102775.47;;;6.45;68.28
21290;BME280;10804;48.988;2.408;2023-02-13T08:18:10;102771.97;;;6.45;68.20
21290;BME280;10804;48.988;2.408;2023-02-13T08:20:37;102772.03;;;6.46;68.17
21290;BME280;10804;48.988;2.408;2023-02-13T08:23:08;102773.78;;;6.47;68.01
21290;BME280;10804;48.988;2.408;2023-02-13T08:25:36;102765.78;;;6.38;67.87
21290;BME280;10804;48.988;2.408;2023-02-13T08:28:04;102766.91;;;6.48;68.27
21290;BME280;10804;48.988;2.408;2023-02-13T08:30:31;102776.38;;;6.47;68.31
21290;BME280;10804;48.988;2.408;2023-02-13T08:32:59;102773.03;;;6.51;68.31
21290;BME280;10804;48.988;2.408;2023-02-13T08:35:26;102777.38;;;6.52;67.98
21290;BME280;10804;48.988;2.408;2023-02-13T08:37:56;102775.56;;;6.50;68.01
21290;BME280;10804;48.988;2.408;2023-02-13T08:40:28;102776.53;;;6.53;68.04
21290;BME280;10804;48.988;2.408;2023-02-13T08:42:59;102780.91;;;6.56;67.92
21290;BME280;10804;48.988;2.408;2023-02-13T08:45:27;102774.88;;;6.57;68.15
21290;BME280;10804;48.988;2.408;2023-02-13T08:47:55;102775.75;;;6.57;68.13
21290;BME280;10804;48.988;2.408;2023-02-13T08:50:23;102783.59;;;6.60;68.14
21290;BME280;10804;48.988;2.408;2023-02-13T08:52:51;102780.25;;;6.66;67.73
21290;BME280;10804;48.988;2.408;2023-02-13T08:55:18;102780.25;;;6.64;67.93
21290;BME280;10804;48.988;2.408;2023-02-13T08:57:47;102775.97;;;6.66;67.73
21290;BME280;10804;48.988;2.408;2023-02-13T09:00:14;102783.81;;;6.69;67.72
21290;BME280;10804;48.988;2.408;2023-02-13T09:02:42;102787.28;;;6.70;67.68
21290;BME280;10804;48.988;2.408;2023-02-13T09:05:09;102784.75;;;6.73;67.76
21290;BME280;10804;48.988;2.408;2023-02-13T09:07:36;102781.34;;;6.75;67.65
21290;BME280;10804;48.988;2.408;2023-02-13T09:10:04;102786.59;;;6.78;67.55
21290;BME280;10804;48.988;2.408;2023-02-13T09:12:32;102777.97;;;6.79;67.84
21290;BME280;10804;48.988;2.408;2023-02-13T09:15:01;102784.16;;;6.84;67.75
21290;BME280;10804;48.988;2.408;2023-02-13T09:17:28;102786.84;;;6.87;67.54
21290;BME280;10804;48.988;2.408;2023-02-13T09:19:55;102785.97;;;6.88;67.73
21290;BME280;10804;48.988;2.408;2023-02-13T09:22:22;102782.66;;;6.94;67.63
21290;BME280;10804;48.988;2.408;2023-02-13T09:24:50;102774.91;;;6.95;67.49
21290;BME280;10804;48.988;2.408;2023-02-13T09:27:17;102770.53;;;6.94;67.31
21290;BME280;10804;48.988;2.408;2023-02-13T09:29:44;102779.34;;;7.02;67.30
21290;BME280;10804;48.988;2.408;2023-02-13T09:32:13;102777.69;;;7.04;67.55
21290;BME280;10804;48.988;2.408;2023-02-13T09:34:42;102782.06;;;7.07;67.39
21290;BME280;10804;48.988;2.408;2023-02-13T09:37:09;102776.09;;;7.11;67.42
21290;BME280;10804;48.988;2.408;2023-02-13T09:39:36;102777.88;;;7.13;67.40
21290;BME280;10804;48.988;2.408;2023-02-13T09:42:06;102776.19;;;7.15;67.29
21290;BME280;10804;48.988;2.408;2023-02-13T09:44:42;102779.81;;;7.23;67.40
21290;BME280;10804;48.988;2.408;2023-02-13T09:47:15;102785.03;;;7.25;67.56
21290;BME280;10804;48.988;2.408;2023-02-13T09:49:46;102776.50;;;7.30;67.10
21290;BME280;10804;48.988;2.408;2023-02-13T09:52:15;102783.53;;;7.34;67.36
21290;BME280;10804;48.988;2.408;2023-02-13T09:54:43;102779.25;;;7.38;67.30
21290;BME280;10804;48.988;2.408;2023-02-13T09:57:30;102777.69;;;7.46;66.92
21290;BME280;10804;48.988;2.408;2023-02-13T10:00:05;102785.50;;;7.47;67.19
21290;BME280;10804;48.988;2.408;2023-02-13T10:02:52;102775.91;;;7.43;67.00
21290;BME280;10804;48.988;2.408;2023-02-13T10:05:43;102781.16;;;7.46;67.32
21290;BME280;10804;48.988;2.408;2023-02-13T10:08:20;102790.75;;;7.50;67.37
21290;BME280;10804;48.988;2.408;2023-02-13T10:10:58;102783.91;;;7.55;67.23
21290;BME280;10804;48.988;2.408;2023-02-13T10:13:44;102779.75;;;7.61;67.18
21290;BME280;10804;48.988;2.408;2023-02-13T10:16:16;102779.81;;;7.66;67.36
21290;BME280;10804;48.988;2.408;2023-02-13T10:18:52;102779.94;;;7.73;66.83
21290;BME280;10804;48.988;2.408;2023-02-13T10:21:22;102779.22;;;7.79;66.54
21290;BME280;10804;48.988;2.408;2023-02-13T10:23:55;102776.69;;;7.85;66.95
21290;BME280;10804;48.988;2.408;2023-02-13T10:26:26;102772.47;;;7.90;66.47
21290;BME280;10804;48.988;2.408;2023-02-13T10:29:12;102776.03;;;7.95;66.63
21290;BME280;10804;48.988;2.408;2023-02-13T10:32:01;102776.97;;;8.00;66.20
21290;BME280;10804;48.988;2.408;2023-02-13T10:34:36;102771.84;;;8.04;66.62
21290;BME280;10804;48.988;2.408;2023-02-13T10:37:10;102773.66;;;8.08;66.06
21290;BME280;10804;48.988;2.408;2023-02-13T10:39:42;102761.59;;;8.12;66.43
21290;BME280;10804;48.988;2.408;2023-02-13T10:42:19;102762.56;;;8.17;66.01
21290;BME280;10804;48.988;2.408;2023-02-13T10:45:02;102760.94;;;8.22;66.08
21290;BME280;10804;48.988;2.408;2023-02-13T10:47:43;102767.94;;;8.26;66.35
21290;BME280;10804;48.988;2.408;2023-02-13T10:50:21;102756.66;;;8.25;66.72
21290;BME280;10804;48.988;2.408;2023-02-13T10:52:56;102764.63;;;8.36;66.45
21290;BME280;10804;48.988;2.408;2023-02-13T10:55:38;102764.72;;;8.42;66.65
21290;BME280;10804;48.988;2.408;2023-02-13T10:58:16;102755.31;;;8.50;66.92
21290;BME280;10804;48.988;2.408;2023-02-13T11:00:47;102755.41;;;8.56;66.96
21290;BME280;10804;48.988;2.408;2023-02-13T11:03:17;102746.84;;;8.63;66.67
21290;BME280;10804;48.988;2.408;2023-02-13T11:05:47;102747.84;;;8.71;67.43
21290;BME280;10804;48.988;2.408;2023-02-13T11:08:19;102746.22;;;8.79;66.99
21290;BME280;10804;48.988;2.408;2023-02-13T11:10:48;102748.06;;;8.86;66.78
21290;BME280;10804;48.988;2.408;2023-02-13T11:13:18;102745.56;;;8.95;66.75
21290;BME280;10804;48.988;2.408;2023-02-13T11:16:03;102737.88;;;9.04;66.63
21290;BME280;10804;48.988;2.408;2023-02-13T11:18:33;102746.66;;;9.12;66.84
21290;BME280;10804;48.988;2.408;2023-02-13T11:21:09;102734.59;;;9.20;66.18
21290;BME280;10804;48.988;2.408;2023-02-13T11:23:40;102731.22;;;9.30;66.26
21290;BME280;10804;48.988;2.408;2023-02-13T11:26:11;102734.78;;;9.38;66.39
21290;BME280;10804;48.988;2.408;2023-02-13T11:28:47;102727.13;;;9.47;65.93
21290;BME280;10804;48.988;2.408;2023-02-13T11:31:23;102723.72;;;9.55;65.58
21290;BME280;10804;48.988;2.408;2023-02-13T11:33:51;102722.94;;;9.64;65.49
21290;BME280;10804;48.988;2.408;2023-02-13T11:36:26;102713.50;;;9.73;65.76
21290;BME280;10804;48.988;2.408;2023-02-13T11:38:58;102723.16;;;9.85;65.05
21290;BME280;10804;48.988;2.408;2023-02-13T11:41:27;102713.66;;;9.94;65.18
21290;BME280;10804;48.988;2.408;2023-02-13T11:43:56;102707.69;;;10.03;64.67
21290;BME280;10804;48.988;2.408;2023-02-13T11:46:28;102709.50;;;10.13;64.39
21290;BME280;10804;48.988;2.408;2023-02-13T11:48:58;102716.56;;;10.23;64.10
21290;BME280;10804;48.988;2.408;2023-02-13T11:51:43;102701.81;;;10.32;64.57
21290;BME280;10804;48.988;2.408;2023-02-13T11:54:28;102707.13;;;10.43;64.38
21290;BME280;10804;48.988;2.408;2023-02-13T11:56:58;102703.69;;;10.51;63.65
21290;BME280;10804;48.988;2.408;2023-02-13T11:59:30;102696.78;;;10.62;63.35
21290;BME280;10804;48.988;2.408;2023-02-13T12:02:11;102690.75;;;10.72;63.22
21290;BME280;10804;48.988;2.408;2023-02-13T12:04:40;102692.53;;;10.84;63.00
21290;BME280;10804;48.988;2.408;2023-02-13T12:07:15;102690.00;;;10.94;62.94
21290;BME280;10804;48.988;2.408;2023-02-13T12:09:44;102693.53;;;11.05;62.63
21290;BME280;10804;48.988;2.408;2023-02-13T12:12:17;102687.47;;;11.17;62.29
21290;BME280;10804;48.988;2.408;2023-02-13T12:14:46;102686.63;;;11.28;61.89
21290;BME280;10804;48.988;2.408;2023-02-13T12:17:16;102686.66;;;11.37;61.76
21290;BME280;10804;48.988;2.408;2023-02-13T12:19:46;102679.72;;;11.47;61.43
21290;BME280;10804;48.988;2.408;2023-02-13T12:22:28;102684.06;;;11.56;62.09
21290;BME280;10804;48.988;2.408;2023-02-13T12:25:23;102680.63;;;11.68;62.38
21290;BME280;10804;48.988;2.408;2023-02-13T12:28:05;102681.53;;;11.77;61.98
21290;BME280;10804;48.988;2.408;2023-02-13T12:33:37;102687.63;;;11.99;61.16
21290;BME280;10804;48.988;2.408;2023-02-13T12:36:15;102669.31;;;12.08;61.02
21290;BME280;10804;48.988;2.408;2023-02-13T12:38:55;102671.06;;;12.18;61.05
21290;BME280;10804;48.988;2.408;2023-02-13T12:41:32;102670.16;;;12.29;60.41
21290;BME280;10804;48.988;2.408;2023-02-13T12:44:26;102668.38;;;12.43;61.28
21290;BME280;10804;48.988;2.408;2023-02-13T12:47:12;102665.72;;;12.54;60.93
21290;BME280;10804;48.988;2.408;2023-02-13T12:50:07;102661.34;;;12.62;60.54
21290;BME280;10804;48.988;2.408;2023-02-13T12:52:58;102656.94;;;12.74;60.57
21290;BME280;10804;48.988;2.408;2023-02-13T12:55:52;102663.03;;;12.82;60.29
21290;BME280;10804;48.988;2.408;2023-02-13T12:58:56;102664.72;;;12.94;60.28
21290;BME280;10804;48.988;2.408;2023-02-13T13:01:42;102661.22;;;13.04;59.55
21290;BME280;10804;48.988;2.408;2023-02-13T13:04:19;102652.41;;;13.12;58.81
21290;BME280;10804;48.988;2.408;2023-02-13T13:07:02;102650.63;;;13.20;58.83
21290;BME280;10804;48.988;2.408;2023-02-13T13:09:59;102650.56;;;13.34;58.89
21290;BME280;10804;48.988;2.408;2023-02-13T13:12:40;102642.63;;;13.41;58.59
21290;BME280;10804;48.988;2.408;2023-02-13T13:15:13;102637.31;;;13.50;57.78
21290;BME280;10804;48.988;2.408;2023-02-13T13:17:56;102645.09;;;13.62;58.27
21290;BME280;10804;48.988;2.408;2023-02-13T13:23:28;102628.31;;;13.81;57.81
21290;BME280;10804;48.988;2.408;2023-02-13T13:26:04;102623.91;;;13.89;57.55
21290;BME280;10804;48.988;2.408;2023-02-13T13:28:39;102622.94;;;13.98;57.34
21290;BME280;10804;48.988;2.408;2023-02-13T13:31:09;102622.00;;;14.06;57.11
21290;BME280;10804;48.988;2.408;2023-02-13T13:33:40;102614.06;;;14.12;56.77
21290;BME280;10804;48.988;2.408;2023-02-13T13:36:15;102611.38;;;14.20;56.84
21290;BME280;10804;48.988;2.408;2023-02-13T13:38:55;102613.94;;;14.26;56.86
21290;BME280;10804;48.988;2.408;2023-02-13T13:41:31;102612.97;;;14.34;56.66